Impacts TAF Board
For situational awareness. Not to be used for flight planning purposes.
IDs:

KCLE - Cleveland/Hopkins In, OH, US

Issued at 1124 UTC 24 Aug 2019
Updated at 1339 UTC 24 Aug 2019
Potential Impact None Slight Moderate High
Time<<25/02Z 25/03Z 25/04Z 25/05Z 25/06Z 25/07Z 25/08Z 25/09Z 25/10Z 25/11Z 25/12Z 25/13Z 25/14Z>>
Type PRVL PRVL PRVL PRVL PRVL PRVL PRVL PRVL PRVL PRVL PRVL PRVL PRVL
VIS >6 >6 >6 >6 >6 >6 >6 >6 >6 >6 >6 >6 >6
CIG -- -- -- -- -- -- -- -- -- -- -- -- --
Cover SCT SCT FEW FEW FEW FEW FEW FEW FEW FEW FEW FEW FEW
FltCat VFR VFR VFR VFR VFR VFR VFR VFR VFR VFR VFR VFR VFR
WX -- -- -- -- -- -- -- -- -- -- -- -- --
WDir 50 50 50 50 50 50 50 50 50 50 50 50 50
WSpd 10 10 7 7 7 7 7 7 7 7 7 7 7
WGst 18 18 -- -- -- -- -- -- -- -- -- -- --
Raw TAF
KCLE 241124Z 2412/2518 06004KT P6SM FEW040 BKN070
  FM241500 05010G18KT P6SM SCT040
  TEMPO 2416/2419 BKN040
  FM250400 05007KT P6SM FEW040
  FM251600 12008KT P6SM SKC


METAR Board
Radar Display
Forecast Discussion
For situational awareness. Not to be used for flight planning purposes.